createdAt,value
2019-02-03T00:00:16.928Z,0.94
2019-02-03T00:01:00.408Z,0.94
2019-02-03T00:01:39.938Z,0.88
2019-02-03T00:02:13.235Z,0.88
2019-02-03T00:02:46.405Z,0.81
2019-02-03T00:03:19.459Z,0.81
2019-02-03T00:03:52.483Z,0.75
2019-02-03T00:04:25.498Z,0.75
2019-02-03T00:04:58.592Z,0.75
2019-02-03T00:05:31.565Z,0.75
2019-02-03T00:06:06.159Z,0.75
2019-02-03T00:06:39.196Z,0.75
2019-02-03T00:07:12.336Z,0.75
2019-02-03T00:07:45.340Z,0.75
2019-02-03T00:08:18.368Z,0.75
2019-02-03T00:08:51.388Z,0.75
2019-02-03T00:09:24.501Z,0.75
2019-02-03T00:09:57.600Z,0.75
2019-02-03T00:10:30.836Z,0.69
2019-02-03T00:11:04.528Z,0.69
2019-02-03T00:11:37.893Z,0.69
2019-02-03T00:12:10.892Z,0.69
2019-02-03T00:12:44.457Z,0.62
2019-02-03T00:13:17.455Z,0.62
2019-02-03T00:13:53.496Z,0.62
2019-02-03T00:14:26.508Z,0.62
2019-02-03T00:14:59.976Z,0.62
2019-02-03T00:15:32.994Z,0.56
2019-02-03T00:16:06.132Z,0.56
2019-02-03T00:16:39.108Z,0.50
2019-02-03T00:17:12.275Z,0.50
2019-02-03T00:17:45.298Z,0.50
2019-02-03T00:18:18.441Z,0.50
2019-02-03T00:18:51.346Z,0.50
2019-02-03T00:19:26.008Z,0.44
2019-02-03T00:19:58.913Z,0.44
2019-02-03T00:20:31.953Z,0.37
2019-02-03T00:21:05.041Z,0.37
2019-02-03T00:21:38.218Z,0.37
2019-02-03T00:22:11.118Z,0.37
2019-02-03T00:22:44.175Z,0.37
2019-02-03T00:23:17.158Z,0.37
2019-02-03T00:23:50.202Z,0.44
2019-02-03T00:24:23.329Z,0.44
2019-02-03T00:24:56.362Z,0.44
2019-02-03T00:25:29.254Z,0.50
2019-02-03T00:26:02.378Z,0.50
2019-02-03T00:26:35.454Z,0.50
2019-02-03T00:27:08.395Z,0.56
2019-02-03T00:27:41.317Z,0.56
2019-02-03T00:28:14.373Z,0.62
2019-02-03T00:28:47.289Z,0.62
2019-02-03T00:29:20.410Z,0.69
2019-02-03T00:29:53.497Z,0.75
2019-02-03T00:30:26.531Z,0.75
2019-02-03T00:30:59.772Z,0.81
2019-02-03T00:31:32.815Z,0.81
2019-02-03T00:32:06.311Z,0.88
2019-02-03T00:32:39.470Z,0.88
2019-02-03T00:33:12.877Z,0.94
2019-02-03T00:33:48.505Z,0.94
2019-02-03T00:34:21.929Z,1.00
2019-02-03T00:34:54.959Z,1.06
2019-02-03T00:35:27.861Z,1.06
2019-02-03T00:36:02.106Z,1.12
2019-02-03T00:36:35.119Z,1.12
2019-02-03T00:37:15.790Z,1.19
2019-02-03T00:37:43.189Z,1.19
2019-02-03T00:38:21.440Z,1.25
2019-02-03T00:38:51.643Z,1.25
2019-02-03T00:39:25.008Z,1.31
2019-02-03T00:40:00.004Z,1.31
2019-02-03T00:40:33.644Z,1.37
2019-02-03T00:41:06.907Z,1.37
2019-02-03T00:41:39.869Z,1.44
2019-02-03T00:42:13.870Z,1.44
2019-02-03T00:42:48.490Z,1.44
2019-02-03T00:43:21.521Z,1.44
2019-02-03T00:43:54.672Z,1.44
2019-02-03T00:44:28.503Z,1.44
2019-02-03T00:45:04.721Z,1.50
2019-02-03T00:45:37.651Z,1.50
2019-02-03T00:46:10.813Z,1.50
2019-02-03T00:46:43.755Z,1.50
2019-02-03T00:47:16.917Z,1.50
2019-02-03T00:47:50.353Z,1.50
2019-02-03T00:48:23.394Z,1.56
2019-02-03T00:48:56.533Z,1.56
2019-02-03T00:49:29.652Z,1.56
2019-02-03T00:50:04.157Z,1.56
2019-02-03T00:50:37.231Z,1.56
2019-02-03T00:51:10.213Z,1.56
2019-02-03T00:51:43.317Z,1.56
2019-02-03T00:52:16.374Z,1.56
2019-02-03T00:52:49.397Z,1.56
2019-02-03T00:53:22.565Z,1.56
2019-02-03T00:53:55.632Z,1.62
2019-02-03T00:54:28.748Z,1.62
2019-02-03T00:55:01.791Z,1.62
2019-02-03T00:55:34.863Z,1.62
2019-02-03T00:56:07.919Z,1.69
2019-02-03T00:56:41.005Z,1.69
2019-02-03T00:57:14.075Z,1.69
2019-02-03T00:57:47.333Z,1.62
2019-02-03T00:58:21.001Z,1.62
2019-02-03T00:58:55.504Z,1.62
2019-02-03T00:59:28.762Z,1.62
2019-02-03T01:00:01.906Z,1.62
2019-02-03T01:00:35.337Z,1.62
2019-02-03T01:01:10.010Z,1.56
2019-02-03T01:01:43.418Z,1.56
2019-02-03T01:02:16.336Z,1.56
2019-02-03T01:02:49.981Z,1.50
2019-02-03T01:03:23.076Z,1.50
2019-02-03T01:03:56.201Z,1.50
2019-02-03T01:04:29.293Z,1.44
2019-02-03T01:05:02.621Z,1.44
2019-02-03T01:05:36.050Z,1.44
2019-02-03T01:06:09.395Z,1.44
2019-02-03T01:06:42.597Z,1.44
2019-02-03T01:07:26.813Z,1.44
2019-02-03T01:07:50.643Z,1.37
2019-02-03T01:08:23.855Z,1.37
2019-02-03T01:08:56.841Z,1.37
2019-02-03T01:09:30.013Z,1.44
2019-02-03T01:10:04.386Z,1.44
2019-02-03T01:10:37.523Z,1.44
2019-02-03T01:11:10.528Z,1.44
2019-02-03T01:11:43.645Z,1.44
2019-02-03T01:12:16.642Z,1.44
2019-02-03T01:12:51.352Z,1.44
2019-02-03T01:13:24.252Z,1.44
2019-02-03T01:13:57.387Z,1.44
2019-02-03T01:14:30.377Z,1.44
2019-02-03T01:15:05.115Z,1.50
2019-02-03T01:15:38.104Z,1.50
2019-02-03T01:16:11.116Z,1.50
2019-02-03T01:16:44.131Z,1.50
2019-02-03T01:17:17.178Z,1.50
2019-02-03T01:17:50.238Z,1.44
2019-02-03T01:18:23.291Z,1.44
2019-02-03T01:18:56.295Z,1.44
2019-02-03T01:19:29.317Z,1.44
2019-02-03T01:20:02.569Z,1.44
2019-02-03T01:20:35.756Z,1.44
2019-02-03T01:21:09.043Z,1.44
2019-02-03T01:21:42.095Z,1.44
2019-02-03T01:22:15.642Z,1.44
2019-02-03T01:22:48.752Z,1.44
2019-02-03T01:23:22.056Z,1.44
2019-02-03T01:23:55.002Z,1.44
2019-02-03T01:24:27.918Z,1.44
2019-02-03T01:25:00.947Z,1.50
2019-02-03T01:25:33.941Z,1.44
2019-02-03T01:26:07.105Z,1.50
2019-02-03T01:26:40.094Z,1.50
2019-02-03T01:27:13.127Z,1.50
2019-02-03T01:27:46.141Z,1.50
2019-02-03T01:28:19.377Z,1.50
2019-02-03T01:28:52.377Z,1.44
2019-02-03T01:29:25.311Z,1.44
2019-02-03T01:29:58.327Z,1.44
2019-02-03T01:30:31.402Z,1.44
2019-02-03T01:31:04.495Z,1.44
2019-02-03T01:31:37.515Z,1.44
2019-02-03T01:32:10.510Z,1.44
2019-02-03T01:32:44.987Z,1.44
2019-02-03T01:33:17.970Z,1.50
2019-02-03T01:33:51.125Z,1.44
2019-02-03T01:34:24.061Z,1.44
2019-02-03T01:34:57.092Z,1.50
2019-02-03T01:35:30.125Z,1.50
2019-02-03T01:36:03.265Z,1.50
2019-02-03T01:36:36.279Z,1.50
2019-02-03T01:37:09.427Z,1.44
2019-02-03T01:37:42.595Z,1.44
2019-02-03T01:38:15.954Z,1.50
2019-02-03T01:38:48.875Z,1.50
2019-02-03T01:39:22.259Z,1.50
2019-02-03T01:39:55.249Z,1.50
2019-02-03T01:40:28.685Z,1.50
2019-02-03T01:41:02.835Z,1.50
2019-02-03T01:41:35.930Z,1.50
2019-02-03T01:42:08.935Z,1.50
2019-02-03T01:42:42.159Z,1.50
2019-02-03T01:43:15.192Z,1.50
2019-02-03T01:43:48.495Z,1.50
2019-02-03T01:44:23.195Z,1.50
2019-02-03T01:44:56.412Z,1.50
2019-02-03T01:45:29.435Z,1.44
2019-02-03T01:46:02.585Z,1.44
2019-02-03T01:46:35.679Z,1.44
2019-02-03T01:47:08.828Z,1.37
2019-02-03T01:47:42.151Z,1.37
2019-02-03T01:48:15.180Z,1.37
2019-02-03T01:48:48.205Z,1.31
2019-02-03T01:49:21.143Z,1.31
2019-02-03T01:49:54.133Z,1.31
2019-02-03T01:50:28.279Z,1.25
2019-02-03T01:51:01.412Z,1.25
2019-02-03T01:51:35.751Z,1.19
2019-02-03T01:52:08.782Z,1.19
2019-02-03T01:52:41.999Z,1.19
2019-02-03T01:53:15.115Z,1.12
2019-02-03T01:53:49.689Z,1.12
2019-02-03T01:54:22.591Z,1.06
2019-02-03T01:54:55.645Z,1.06
2019-02-03T01:55:28.666Z,1.00
2019-02-03T01:56:01.751Z,1.00
2019-02-03T01:56:34.675Z,0.94
2019-02-03T01:57:07.704Z,0.94
2019-02-03T01:57:40.687Z,0.88
2019-02-03T01:58:13.783Z,0.81
2019-02-03T01:58:47.077Z,0.81
2019-02-03T01:59:22.697Z,0.75
2019-02-03T01:59:56.010Z,0.69
2019-02-03T02:00:29.254Z,0.62
2019-02-03T02:01:03.309Z,0.56
2019-02-03T02:01:37.917Z,0.56
2019-02-03T02:02:11.368Z,0.50
2019-02-03T02:02:45.743Z,0.50
2019-02-03T02:03:19.094Z,0.44
2019-02-03T02:03:52.089Z,0.44
2019-02-03T02:04:25.676Z,0.37
2019-02-03T02:04:58.869Z,0.31
2019-02-03T02:05:31.988Z,0.31
2019-02-03T02:06:05.184Z,0.25
2019-02-03T02:06:38.628Z,0.25
2019-02-03T02:07:11.645Z,0.19
2019-02-03T02:07:51.517Z,0.19
2019-02-03T02:08:20.736Z,0.19
2019-02-03T02:08:54.546Z,0.13
2019-02-03T02:09:27.549Z,0.06
2019-02-03T02:10:00.459Z,0.06
2019-02-03T02:10:33.383Z,0.06
2019-02-03T02:11:06.418Z,0.06
2019-02-03T02:11:39.404Z,0.00
2019-02-03T02:12:12.460Z,0.00
2019-02-03T02:12:45.592Z,0.00
2019-02-03T02:13:18.732Z,-0.06
2019-02-03T02:13:51.653Z,-0.06
2019-02-03T02:14:24.952Z,-0.06
2019-02-03T02:14:57.844Z,-0.06
2019-02-03T02:15:31.011Z,-0.13
2019-02-03T02:16:04.394Z,-0.13
2019-02-03T02:16:37.358Z,-0.13
2019-02-03T02:17:10.460Z,-0.13
2019-02-03T02:17:43.516Z,-0.19
2019-02-03T02:18:16.499Z,-0.19
2019-02-03T02:18:49.518Z,-0.19
2019-02-03T02:19:22.798Z,-0.19
2019-02-03T02:19:55.942Z,-0.19
2019-02-03T02:20:29.356Z,-0.19
2019-02-03T02:21:02.652Z,-0.19
2019-02-03T02:21:36.038Z,-0.19
2019-02-03T02:22:09.082Z,-0.13
2019-02-03T02:22:42.622Z,-0.13
2019-02-03T02:23:15.682Z,-0.06
2019-02-03T02:23:48.688Z,-0.06
2019-02-03T02:24:21.844Z,-0.06
2019-02-03T02:24:54.922Z,-0.06
2019-02-03T02:25:28.169Z,-0.06
2019-02-03T02:26:01.204Z,-0.06
2019-02-03T02:26:34.494Z,-0.13
2019-02-03T02:27:07.494Z,-0.13
2019-02-03T02:27:42.090Z,-0.13
2019-02-03T02:28:15.146Z,-0.19
2019-02-03T02:28:48.160Z,-0.19
2019-02-03T02:29:22.239Z,-0.25
2019-02-03T02:29:55.256Z,-0.25
2019-02-03T02:30:28.366Z,-0.25
2019-02-03T02:31:01.603Z,-0.25
2019-02-03T02:31:34.706Z,-0.25
2019-02-03T02:32:07.626Z,-0.31
2019-02-03T02:32:40.617Z,-0.31
2019-02-03T02:33:13.638Z,-0.31
2019-02-03T02:33:46.642Z,-0.31
2019-02-03T02:34:19.618Z,-0.31
2019-02-03T02:34:53.618Z,-0.31
2019-02-03T02:35:26.670Z,-0.25
2019-02-03T02:35:59.567Z,-0.31
2019-02-03T02:36:32.902Z,-0.31
2019-02-03T02:37:05.885Z,-0.31
2019-02-03T02:37:39.336Z,-0.31
2019-02-03T02:38:13.311Z,-0.31
2019-02-03T02:38:46.788Z,-0.31
2019-02-03T02:39:19.912Z,-0.25
2019-02-03T02:39:53.088Z,-0.25
2019-02-03T02:40:26.111Z,-0.31
2019-02-03T02:40:59.377Z,-0.31
2019-02-03T02:41:32.366Z,-0.31
2019-02-03T02:42:05.506Z,-0.31
2019-02-03T02:42:38.536Z,-0.31
2019-02-03T02:43:11.676Z,-0.31
2019-02-03T02:43:44.552Z,-0.37
2019-02-03T02:44:17.488Z,-0.37
2019-02-03T02:44:50.524Z,-0.37
2019-02-03T02:45:23.538Z,-0.37
2019-02-03T02:45:56.525Z,-0.37
2019-02-03T02:46:29.570Z,-0.37
2019-02-03T02:47:02.622Z,-0.37
2019-02-03T02:47:35.716Z,-0.31
2019-02-03T02:48:08.816Z,-0.31
2019-02-03T02:48:41.987Z,-0.31
2019-02-03T02:49:15.004Z,-0.31
2019-02-03T02:49:47.948Z,-0.31
2019-02-03T02:50:24.997Z,-0.31
2019-02-03T02:50:58.450Z,-0.25
2019-02-03T02:51:31.491Z,-0.25
2019-02-03T02:52:04.551Z,-0.19
2019-02-03T02:52:37.674Z,-0.13
2019-02-03T02:53:10.787Z,-0.06
2019-02-03T02:53:43.718Z,-0.06
2019-02-03T02:54:16.680Z,0.00
2019-02-03T02:54:49.880Z,0.06
2019-02-03T02:55:22.926Z,0.06
2019-02-03T02:55:56.388Z,0.13
2019-02-03T02:56:29.481Z,0.13
2019-02-03T02:57:03.101Z,0.19
2019-02-03T02:57:36.264Z,0.19
2019-02-03T02:58:09.686Z,0.19
2019-02-03T02:58:42.762Z,0.25
2019-02-03T02:59:17.594Z,0.25
2019-02-03T02:59:50.786Z,0.25
2019-02-03T03:00:24.434Z,0.25
2019-02-03T03:00:57.627Z,0.31
2019-02-03T03:01:30.930Z,0.31
2019-02-03T03:02:04.189Z,0.31
2019-02-03T03:02:37.286Z,0.31
2019-02-03T03:03:10.459Z,0.31
2019-02-03T03:03:44.704Z,0.31
2019-02-03T03:04:17.788Z,0.31
2019-02-03T03:04:50.859Z,0.31
2019-02-03T03:05:23.925Z,0.31
2019-02-03T03:05:57.000Z,0.31
2019-02-03T03:06:30.312Z,0.31
2019-02-03T03:07:03.769Z,0.37
2019-02-03T03:07:36.960Z,0.37
2019-02-03T03:08:18.505Z,0.37
2019-02-03T03:08:44.962Z,0.44
2019-02-03T03:09:18.070Z,0.44
2019-02-03T03:09:51.019Z,0.44
2019-02-03T03:10:24.333Z,0.50
2019-02-03T03:10:57.364Z,0.50
2019-02-03T03:11:31.418Z,0.50
2019-02-03T03:12:04.581Z,0.56
2019-02-03T03:12:37.627Z,0.56
2019-02-03T03:13:10.604Z,0.56
2019-02-03T03:13:43.720Z,0.62
2019-02-03T03:14:16.776Z,0.62
2019-02-03T03:14:49.865Z,0.62
2019-02-03T03:15:23.056Z,0.62
2019-02-03T03:15:56.357Z,0.62
2019-02-03T03:16:29.496Z,0.62
2019-02-03T03:17:02.574Z,0.62
2019-02-03T03:17:37.440Z,0.62
2019-02-03T03:18:10.599Z,0.62
2019-02-03T03:18:44.179Z,0.62
2019-02-03T03:19:17.266Z,0.62
2019-02-03T03:19:50.725Z,0.62
2019-02-03T03:20:23.890Z,0.69
2019-02-03T03:20:57.311Z,0.69
2019-02-03T03:21:30.324Z,0.69
2019-02-03T03:22:03.992Z,0.69
2019-02-03T03:22:37.010Z,0.69
2019-02-03T03:23:10.083Z,0.69
2019-02-03T03:23:44.592Z,0.69
2019-02-03T03:24:17.631Z,0.75
2019-02-03T03:24:50.685Z,0.75
2019-02-03T03:25:23.946Z,0.75
2019-02-03T03:25:56.938Z,0.75
2019-02-03T03:26:30.015Z,0.75
2019-02-03T03:27:03.092Z,0.75
2019-02-03T03:27:36.201Z,0.69
2019-02-03T03:28:09.392Z,0.69
2019-02-03T03:28:44.227Z,0.69
2019-02-03T03:29:17.263Z,0.69
2019-02-03T03:29:50.291Z,0.69
2019-02-03T03:30:27.212Z,0.69
2019-02-03T03:31:00.266Z,0.69
2019-02-03T03:31:33.264Z,0.75
2019-02-03T03:32:06.383Z,0.75
2019-02-03T03:32:39.348Z,0.75
2019-02-03T03:33:12.518Z,0.69
2019-02-03T03:33:45.426Z,0.69
2019-02-03T03:34:18.476Z,0.69
2019-02-03T03:34:51.502Z,0.69
2019-02-03T03:35:25.674Z,0.69
2019-02-03T03:35:59.991Z,0.69
2019-02-03T03:36:33.021Z,0.69
2019-02-03T03:37:06.064Z,0.69
2019-02-03T03:37:38.979Z,0.75
2019-02-03T03:38:12.056Z,0.75
2019-02-03T03:38:45.104Z,0.75
2019-02-03T03:39:18.131Z,0.75
2019-02-03T03:39:51.163Z,0.75
2019-02-03T03:40:27.291Z,0.75
2019-02-03T03:41:00.370Z,0.75
2019-02-03T03:41:33.785Z,0.75
2019-02-03T03:42:06.955Z,0.75
2019-02-03T03:42:39.957Z,0.75
2019-02-03T03:43:12.984Z,0.75
2019-02-03T03:43:46.508Z,0.69
2019-02-03T03:44:19.483Z,0.69
2019-02-03T03:44:52.493Z,0.69
2019-02-03T03:45:25.840Z,0.62
2019-02-03T03:45:58.899Z,0.62
2019-02-03T03:46:31.827Z,0.62
2019-02-03T03:47:04.950Z,0.62
2019-02-03T03:47:37.901Z,0.56
2019-02-03T03:48:10.935Z,0.56
2019-02-03T03:48:43.948Z,0.50
2019-02-03T03:49:16.977Z,0.44
2019-02-03T03:49:50.003Z,0.44
2019-02-03T03:50:23.264Z,0.37
2019-02-03T03:50:56.268Z,0.31
2019-02-03T03:51:29.387Z,0.25
2019-02-03T03:52:02.521Z,0.19
2019-02-03T03:52:39.244Z,0.13
2019-02-03T03:53:10.560Z,0.13
2019-02-03T03:53:43.453Z,0.06
2019-02-03T03:54:16.479Z,0.00
2019-02-03T03:54:49.383Z,0.00
2019-02-03T03:55:22.509Z,-0.06
2019-02-03T03:55:55.520Z,-0.13
2019-02-03T03:56:28.435Z,-0.13
2019-02-03T03:57:01.428Z,-0.19
2019-02-03T03:57:34.464Z,-0.19
2019-02-03T03:58:07.559Z,-0.25
2019-02-03T03:58:40.581Z,-0.31
2019-02-03T03:59:13.680Z,-0.31
2019-02-03T03:59:47.109Z,-0.31
2019-02-03T04:00:23.400Z,-0.37
2019-02-03T04:00:56.713Z,-0.37
2019-02-03T04:01:29.719Z,-0.44
2019-02-03T04:02:03.323Z,-0.44
2019-02-03T04:02:36.440Z,-0.50
2019-02-03T04:03:09.780Z,-0.50
2019-02-03T04:03:42.789Z,-0.50
2019-02-03T04:04:16.486Z,-0.56
2019-02-03T04:04:49.689Z,-0.56
2019-02-03T04:05:22.942Z,-0.62
2019-02-03T04:05:55.947Z,-0.62
2019-02-03T04:06:29.985Z,-0.62
2019-02-03T04:07:03.113Z,-0.62
2019-02-03T04:07:36.190Z,-0.69
2019-02-03T04:08:09.180Z,-0.69
2019-02-03T04:08:45.215Z,-0.69
2019-02-03T04:09:17.009Z,-0.75
2019-02-03T04:09:50.458Z,-0.75
2019-02-03T04:10:23.914Z,-0.75
2019-02-03T04:10:56.969Z,-0.75
2019-02-03T04:11:30.029Z,-0.75
2019-02-03T04:12:04.657Z,-0.81
2019-02-03T04:12:37.687Z,-0.81
2019-02-03T04:13:10.644Z,-0.81
2019-02-03T04:13:43.642Z,-0.81
2019-02-03T04:14:16.686Z,-0.81
2019-02-03T04:14:49.672Z,-0.81
2019-02-03T04:15:23.509Z,-0.81
2019-02-03T04:15:56.504Z,-0.88
2019-02-03T04:16:29.577Z,-0.88
2019-02-03T04:17:02.674Z,-0.88
2019-02-03T04:17:36.092Z,-0.88
2019-02-03T04:18:10.196Z,-0.88
2019-02-03T04:18:43.168Z,-0.94
2019-02-03T04:19:16.160Z,-0.94
2019-02-03T04:19:49.014Z,-0.94
2019-02-03T04:20:27.922Z,-0.94
2019-02-03T04:21:00.968Z,-0.94
2019-02-03T04:21:33.853Z,-0.94
2019-02-03T04:22:06.970Z,-0.94
2019-02-03T04:22:39.989Z,-0.94
2019-02-03T04:23:12.994Z,-0.94
2019-02-03T04:23:46.306Z,-0.94
2019-02-03T04:24:19.344Z,-1.00
2019-02-03T04:24:52.648Z,-1.00
2019-02-03T04:25:25.760Z,-1.00
2019-02-03T04:25:58.639Z,-1.00
2019-02-03T04:26:31.799Z,-1.00
2019-02-03T04:27:05.692Z,-1.00
2019-02-03T04:27:38.680Z,-1.00
2019-02-03T04:28:11.562Z,-1.00
2019-02-03T04:28:46.340Z,-0.94
2019-02-03T04:29:19.275Z,-0.88
2019-02-03T04:29:52.094Z,-0.81
2019-02-03T04:30:25.935Z,-0.75
2019-02-03T04:31:00.160Z,-0.69
2019-02-03T04:31:33.076Z,-0.56
2019-02-03T04:32:06.104Z,-0.50
2019-02-03T04:32:39.104Z,-0.44
2019-02-03T04:33:12.061Z,-0.44
2019-02-03T04:33:44.955Z,-0.37
2019-02-03T04:34:18.092Z,-0.31
2019-02-03T04:34:51.131Z,-0.31
2019-02-03T04:35:24.156Z,-0.31
2019-02-03T04:35:57.032Z,-0.25
2019-02-03T04:36:30.219Z,-0.19
2019-02-03T04:37:03.301Z,-0.19
2019-02-03T04:37:36.354Z,-0.13
2019-02-03T04:38:09.364Z,-0.13
2019-02-03T04:38:42.304Z,-0.13
2019-02-03T04:39:15.265Z,-0.06
2019-02-03T04:39:48.261Z,-0.06
2019-02-03T04:40:21.804Z,-0.06
2019-02-03T04:40:54.879Z,0.00
2019-02-03T04:41:27.990Z,0.06
2019-02-03T04:42:01.609Z,0.13
2019-02-03T04:42:34.808Z,0.19
2019-02-03T04:43:08.403Z,0.25
2019-02-03T04:43:41.358Z,0.31
2019-02-03T04:44:14.670Z,0.37
2019-02-03T04:44:50.381Z,0.44
2019-02-03T04:45:23.908Z,0.50
2019-02-03T04:45:57.060Z,0.56
2019-02-03T04:46:30.067Z,0.56
2019-02-03T04:47:03.190Z,0.62
2019-02-03T04:47:36.097Z,0.69
2019-02-03T04:48:09.129Z,0.69
2019-02-03T04:48:42.024Z,0.75
2019-02-03T04:49:15.031Z,0.75
2019-02-03T04:49:48.128Z,0.81
2019-02-03T04:50:21.456Z,0.81
2019-02-03T04:50:54.355Z,0.81
2019-02-03T04:51:27.406Z,0.81
2019-02-03T04:52:00.433Z,0.81
2019-02-03T04:52:33.594Z,0.81
2019-02-03T04:53:06.500Z,0.81
2019-02-03T04:53:39.429Z,0.81
2019-02-03T04:54:12.472Z,0.81
2019-02-03T04:54:45.430Z,0.75
2019-02-03T04:55:18.908Z,0.75
2019-02-03T04:55:51.854Z,0.69
2019-02-03T04:56:24.857Z,0.69
2019-02-03T04:56:57.799Z,0.69
2019-02-03T04:57:30.793Z,0.62
2019-02-03T04:58:04.342Z,0.62
2019-02-03T04:58:37.344Z,0.62
2019-02-03T04:59:10.703Z,0.56
2019-02-03T04:59:43.579Z,0.56
2019-02-03T05:00:21.986Z,0.56
2019-02-03T05:00:55.202Z,0.56
2019-02-03T05:01:28.255Z,0.56
2019-02-03T05:02:01.143Z,0.56
2019-02-03T05:02:34.686Z,0.56
2019-02-03T05:03:07.703Z,0.62
2019-02-03T05:03:41.200Z,0.62
2019-02-03T05:04:14.321Z,0.62
2019-02-03T05:04:47.536Z,0.62
2019-02-03T05:05:20.725Z,0.62
2019-02-03T05:05:53.693Z,0.62
2019-02-03T05:06:26.644Z,0.62
2019-02-03T05:06:59.656Z,0.62
2019-02-03T05:07:33.066Z,0.62
2019-02-03T05:08:06.118Z,0.62
2019-02-03T05:08:38.937Z,0.62
2019-02-03T05:09:11.922Z,0.56
2019-02-03T05:09:44.737Z,0.56
2019-02-03T05:10:18.516Z,0.56
2019-02-03T05:10:51.498Z,0.56
2019-02-03T05:11:26.254Z,0.50
2019-02-03T05:11:59.346Z,0.50
2019-02-03T05:12:32.422Z,0.56
2019-02-03T05:13:06.420Z,0.56
2019-02-03T05:13:39.544Z,0.56
2019-02-03T05:14:12.349Z,0.56
2019-02-03T05:14:45.309Z,0.56
2019-02-03T05:15:21.307Z,0.56
2019-02-03T05:15:54.484Z,0.56
2019-02-03T05:16:27.595Z,0.50
2019-02-03T05:17:00.637Z,0.50
2019-02-03T05:17:33.754Z,0.50
2019-02-03T05:18:06.786Z,0.56
2019-02-03T05:18:39.908Z,0.50
2019-02-03T05:19:12.928Z,0.50
2019-02-03T05:19:46.057Z,0.50
2019-02-03T05:20:24.866Z,0.50
2019-02-03T05:20:57.862Z,0.44
2019-02-03T05:21:31.040Z,0.44
2019-02-03T05:22:04.068Z,0.44
2019-02-03T05:22:37.274Z,0.37
2019-02-03T05:23:10.563Z,0.37
2019-02-03T05:23:43.492Z,0.37
2019-02-03T05:24:16.854Z,0.37
2019-02-03T05:24:49.823Z,0.37
2019-02-03T05:25:23.449Z,0.37
2019-02-03T05:25:56.483Z,0.37
2019-02-03T05:26:29.491Z,0.37
2019-02-03T05:27:02.679Z,0.37
2019-02-03T05:27:35.681Z,0.37
2019-02-03T05:28:08.708Z,0.37
2019-02-03T05:28:41.782Z,0.31
2019-02-03T05:29:15.718Z,0.31
2019-02-03T05:29:48.805Z,0.31
2019-02-03T05:30:28.723Z,0.31
2019-02-03T05:31:01.621Z,0.25
2019-02-03T05:31:34.581Z,0.19
2019-02-03T05:32:07.592Z,0.13
2019-02-03T05:32:40.535Z,0.06
2019-02-03T05:33:13.484Z,0.06
2019-02-03T05:33:46.552Z,0.00
2019-02-03T05:34:19.624Z,-0.06
2019-02-03T05:34:52.991Z,-0.13
2019-02-03T05:35:26.037Z,-0.19
2019-02-03T05:35:59.122Z,-0.19
2019-02-03T05:36:32.432Z,-0.25
2019-02-03T05:37:05.442Z,-0.31
2019-02-03T05:37:38.470Z,-0.31
2019-02-03T05:38:11.468Z,-0.37
2019-02-03T05:38:44.490Z,-0.44
2019-02-03T05:39:25.005Z,-0.44
2019-02-03T05:39:52.486Z,-0.50
2019-02-03T05:40:25.383Z,-0.50
2019-02-03T05:40:58.327Z,-0.56
2019-02-03T05:41:31.371Z,-0.56
2019-02-03T05:42:04.455Z,-0.62
2019-02-03T05:42:37.583Z,-0.62
2019-02-03T05:43:10.629Z,-0.62
2019-02-03T05:43:43.802Z,-0.69
2019-02-03T05:44:16.972Z,-0.69
2019-02-03T05:44:50.118Z,-0.69
2019-02-03T05:45:23.246Z,-0.69
2019-02-03T05:45:56.643Z,-0.75
2019-02-03T05:46:29.683Z,-0.75
2019-02-03T05:47:03.299Z,-0.75
2019-02-03T05:47:36.295Z,-0.81
2019-02-03T05:48:09.468Z,-0.81
2019-02-03T05:48:42.355Z,-0.81
2019-02-03T05:49:15.149Z,-0.88
2019-02-03T05:49:48.177Z,-0.88
2019-02-03T05:50:21.500Z,-0.88
2019-02-03T05:50:54.416Z,-0.88
2019-02-03T05:51:27.447Z,-0.94
2019-02-03T05:52:00.457Z,-0.94
2019-02-03T05:52:33.525Z,-0.94
2019-02-03T05:53:06.633Z,-1.00
2019-02-03T05:53:39.673Z,-1.00
2019-02-03T05:54:12.600Z,-1.00
2019-02-03T05:54:45.590Z,-1.00
2019-02-03T05:55:18.943Z,-1.06
2019-02-03T05:55:51.930Z,-1.06
2019-02-03T05:56:25.043Z,-1.06
2019-02-03T05:56:57.980Z,-1.06
2019-02-03T05:57:31.003Z,-1.06
2019-02-03T05:58:04.128Z,-1.06
2019-02-03T05:58:37.048Z,-1.12
2019-02-03T05:59:10.958Z,-1.12
2019-02-03T05:59:44.101Z,-1.12
2019-02-03T06:00:34.884Z,-1.12
2019-02-03T06:01:08.311Z,-1.12
2019-02-03T06:01:41.452Z,-1.06
2019-02-03T06:02:14.424Z,-1.06
2019-02-03T06:02:47.530Z,-1.06
2019-02-03T06:03:20.498Z,-1.06
2019-02-03T06:03:53.555Z,-1.00
2019-02-03T06:04:26.542Z,-1.00
2019-02-03T06:05:00.583Z,-1.00
2019-02-03T06:05:33.616Z,-1.06
2019-02-03T06:06:06.759Z,-1.00
2019-02-03T06:06:39.803Z,-1.00
2019-02-03T06:07:13.044Z,-1.06
2019-02-03T06:07:46.101Z,-1.00
2019-02-03T06:08:19.148Z,-1.00
2019-02-03T06:08:52.283Z,-1.00
2019-02-03T06:09:36.050Z,-1.06
2019-02-03T06:10:00.434Z,-1.06
2019-02-03T06:10:33.481Z,-1.06
2019-02-03T06:11:07.488Z,-1.06
2019-02-03T06:11:40.530Z,-1.12
2019-02-03T06:12:13.796Z,-1.12
2019-02-03T06:12:46.899Z,-1.12
2019-02-03T06:13:20.394Z,-1.12
2019-02-03T06:13:53.338Z,-1.12
2019-02-03T06:14:26.842Z,-1.12
2019-02-03T06:14:59.808Z,-1.12
2019-02-03T06:15:32.819Z,-1.19
2019-02-03T06:16:05.857Z,-1.12
2019-02-03T06:16:38.852Z,-1.12
2019-02-03T06:17:11.882Z,-1.12
2019-02-03T06:17:45.041Z,-1.12
2019-02-03T06:18:18.251Z,-1.12
2019-02-03T06:18:51.183Z,-1.12
2019-02-03T06:19:24.241Z,-1.12
2019-02-03T06:19:57.140Z,-1.12
2019-02-03T06:20:30.259Z,-1.19
2019-02-03T06:21:03.275Z,-1.19
2019-02-03T06:21:36.268Z,-1.19
2019-02-03T06:22:09.377Z,-1.19
2019-02-03T06:22:42.830Z,-1.19
2019-02-03T06:23:15.831Z,-1.19
2019-02-03T06:23:48.918Z,-1.19
2019-02-03T06:24:21.828Z,-1.19
2019-02-03T06:24:54.888Z,-1.19
2019-02-03T06:25:28.029Z,-1.19
2019-02-03T06:26:01.536Z,-1.19
2019-02-03T06:26:34.511Z,-1.25
2019-02-03T06:27:07.571Z,-1.25
2019-02-03T06:27:40.690Z,-1.25
2019-02-03T06:28:14.166Z,-1.25
2019-02-03T06:28:47.045Z,-1.25
2019-02-03T06:29:20.540Z,-1.25
2019-02-03T06:29:53.558Z,-1.25
2019-02-03T06:31:21.529Z,-1.25
2019-02-03T06:31:54.520Z,-1.31
2019-02-03T06:32:27.482Z,-1.31
2019-02-03T06:33:00.433Z,-1.31
2019-02-03T06:33:33.498Z,-1.31
2019-02-03T06:34:07.674Z,-1.31
2019-02-03T06:34:40.724Z,-1.37
2019-02-03T06:35:13.744Z,-1.37
2019-02-03T06:35:46.687Z,-1.37
2019-02-03T06:36:20.731Z,-1.37
2019-02-03T06:36:53.774Z,-1.37
2019-02-03T06:37:26.798Z,-1.37
2019-02-03T06:37:59.737Z,-1.37
2019-02-03T06:38:32.824Z,-1.37
2019-02-03T06:39:08.908Z,-1.37
2019-02-03T06:39:48.650Z,-1.37
2019-02-03T06:40:16.962Z,-1.37
2019-02-03T06:40:50.131Z,-1.37
2019-02-03T06:41:23.180Z,-1.37
2019-02-03T06:41:56.215Z,-1.37
2019-02-03T06:42:29.227Z,-1.37
2019-02-03T06:43:02.646Z,-1.31
2019-02-03T06:43:35.678Z,-1.31
2019-02-03T06:44:10.757Z,-1.31
2019-02-03T06:44:43.782Z,-1.31
2019-02-03T06:45:25.836Z,-1.31
2019-02-03T06:46:21.144Z,-1.31
2019-02-03T06:47:02.708Z,-1.31
2019-02-03T06:47:35.838Z,-1.25
2019-02-03T06:48:10.934Z,-1.25
2019-02-03T06:48:44.274Z,-1.25
2019-02-03T06:49:22.908Z,-1.25
2019-02-03T06:49:55.822Z,-1.25
2019-02-03T06:50:28.941Z,-1.19
2019-02-03T06:51:01.854Z,-1.19
2019-02-03T06:51:35.008Z,-1.19
2019-02-03T06:52:08.418Z,-1.19
2019-02-03T06:52:41.488Z,-1.12
2019-02-03T06:53:14.794Z,-1.12
2019-02-03T06:53:47.850Z,-1.06
2019-02-03T06:54:21.378Z,-1.06
2019-02-03T06:54:54.332Z,-1.00
2019-02-03T06:55:27.322Z,-1.00
2019-02-03T06:56:00.761Z,-1.00
2019-02-03T06:56:33.752Z,-0.94
2019-02-03T06:57:07.483Z,-0.94
2019-02-03T06:57:40.485Z,-0.94
2019-02-03T06:58:13.544Z,-0.94
2019-02-03T06:58:46.564Z,-0.94
2019-02-03T06:59:19.610Z,-0.94
2019-02-03T06:59:52.496Z,-0.94
2019-02-03T07:00:25.579Z,-0.94
2019-02-03T07:00:58.678Z,-0.94
2019-02-03T07:01:33.291Z,-1.00
2019-02-03T07:02:06.386Z,-1.00
2019-02-03T07:02:39.515Z,-1.06
2019-02-03T07:03:12.430Z,-1.06
2019-02-03T07:03:45.477Z,-1.06
2019-02-03T07:04:18.601Z,-1.12
2019-02-03T07:04:51.527Z,-1.12
2019-02-03T07:05:24.518Z,-1.12
2019-02-03T07:05:57.562Z,-1.19
2019-02-03T07:06:30.556Z,-1.19
2019-02-03T07:07:04.521Z,-1.19
2019-02-03T07:07:37.674Z,-1.25
2019-02-03T07:08:10.943Z,-1.25
2019-02-03T07:08:44.030Z,-1.25
2019-02-03T07:09:18.722Z,-1.31
2019-02-03T07:10:00.392Z,-1.31
2019-02-03T07:10:28.470Z,-1.31
2019-02-03T07:11:01.790Z,-1.37
2019-02-03T07:11:35.148Z,-1.37
2019-02-03T07:12:08.432Z,-1.37
2019-02-03T07:12:41.954Z,-1.37
2019-02-03T07:13:14.926Z,-1.37
2019-02-03T07:13:48.486Z,-1.44
2019-02-03T07:14:21.548Z,-1.44
2019-02-03T07:14:54.510Z,-1.44
2019-02-03T07:15:28.488Z,-1.44
2019-02-03T07:16:01.680Z,-1.44
2019-02-03T07:16:41.071Z,-1.44
2019-02-03T07:17:09.924Z,-1.44
2019-02-03T07:17:43.145Z,-1.44
2019-02-03T07:18:16.180Z,-1.44
2019-02-03T07:18:49.734Z,-1.50
2019-02-03T07:19:22.802Z,-1.50